createdAt,value
2018-10-11T04:33:10.208Z,12.40
2018-10-11T04:35:38.403Z,15.63
2018-10-11T04:38:06.427Z,15.13
2018-10-11T04:40:34.455Z,13.00
2018-10-11T04:43:02.590Z,10.37
2018-10-11T04:45:30.492Z,11.47
2018-10-11T04:47:58.520Z,17.43
2018-10-11T04:50:26.589Z,12.43
2018-10-11T04:52:54.624Z,14.37
2018-10-11T04:55:22.631Z,9.07
2018-10-11T04:57:50.615Z,14.57
2018-10-11T05:00:18.615Z,11.53
2018-10-11T05:02:47.052Z,13.87
2018-10-11T05:05:15.948Z,15.73
2018-10-11T05:07:44.314Z,14.50
2018-10-11T05:10:12.372Z,15.57
2018-10-11T05:12:40.506Z,11.03
2018-10-11T05:15:08.787Z,12.93
2018-10-11T05:17:38.630Z,12.27
2018-10-11T05:20:08.765Z,15.70
2018-10-11T05:22:36.791Z,16.90
2018-10-11T05:25:04.818Z,12.03
2018-10-11T05:27:32.870Z,11.33
2018-10-11T05:30:00.855Z,10.27
2018-10-11T05:32:28.908Z,12.53
2018-10-11T05:34:57.700Z,9.93
2018-10-11T05:37:25.757Z,10.10
2018-10-11T05:39:53.791Z,11.90
2018-10-11T05:42:21.820Z,12.37
2018-10-11T05:44:50.091Z,15.07
2018-10-11T05:47:18.139Z,11.10
2018-10-11T05:49:46.168Z,17.47
2018-10-11T05:52:14.280Z,17.40
2018-10-11T05:54:42.300Z,12.90
2018-10-11T05:57:10.330Z,12.83
2018-10-11T05:59:38.366Z,15.07
2018-10-11T06:02:06.538Z,14.53
2018-10-11T06:04:34.647Z,13.10
2018-10-11T06:07:02.665Z,13.50
2018-10-11T06:09:31.008Z,13.13
2018-10-11T06:11:59.077Z,11.93
2018-10-11T06:14:27.077Z,20.63
2018-10-11T06:16:55.106Z,13.90
2018-10-11T06:19:23.849Z,14.43
2018-10-11T06:21:51.893Z,12.23
2018-10-11T06:24:20.001Z,12.30
2018-10-11T06:26:48.002Z,11.40
2018-10-11T06:29:16.096Z,10.50
2018-10-11T06:31:44.158Z,12.90
2018-10-11T06:34:12.456Z,10.50
2018-10-11T06:36:41.087Z,10.27
2018-10-11T06:39:09.537Z,8.10
2018-10-11T06:41:37.815Z,11.27
2018-10-11T06:44:05.891Z,8.20
2018-10-11T06:46:33.931Z,11.80
2018-10-11T06:49:01.919Z,8.90
2018-10-11T06:51:30.395Z,11.20
2018-10-11T06:53:58.740Z,13.73
2018-10-11T06:56:26.806Z,9.10
2018-10-11T06:58:54.878Z,10.10
2018-10-11T07:01:23.105Z,11.23
2018-10-11T07:03:51.368Z,9.60
2018-10-11T07:06:19.393Z,11.57
2018-10-11T07:08:47.479Z,16.00
2018-10-11T07:11:15.902Z,10.87
2018-10-11T07:13:44.158Z,12.00
2018-10-11T07:16:12.778Z,7.77
2018-10-11T07:18:40.896Z,7.93
2018-10-11T07:21:08.921Z,9.33
2018-10-11T07:23:37.166Z,10.27
2018-10-11T07:26:05.223Z,7.90
2018-10-11T07:28:33.273Z,8.20
2018-10-11T07:31:01.364Z,7.87
2018-10-11T07:33:29.427Z,8.63
2018-10-11T07:35:57.518Z,8.10
2018-10-11T07:38:25.543Z,6.93
2018-10-11T07:40:53.577Z,7.90
2018-10-11T07:43:21.589Z,7.30
2018-10-11T07:45:49.652Z,6.93
2018-10-11T07:48:17.787Z,6.87
2018-10-11T07:50:45.897Z,8.10
2018-10-11T07:53:14.189Z,6.67
2018-10-11T07:55:42.873Z,11.03
2018-10-11T07:58:11.498Z,8.07
2018-10-11T08:00:40.270Z,6.53
2018-10-11T08:03:09.252Z,7.93
2018-10-11T08:05:37.890Z,7.57
2018-10-11T08:08:05.931Z,7.07
2018-10-11T08:10:34.273Z,11.63
2018-10-11T08:13:02.700Z,7.03
2018-10-11T08:15:30.734Z,7.30
2018-10-11T08:17:59.089Z,6.63
2018-10-11T08:20:27.437Z,9.70
2018-10-11T08:22:55.684Z,9.50
2018-10-11T08:25:23.879Z,8.07
2018-10-11T08:27:52.035Z,8.53
2018-10-11T08:30:20.041Z,8.27
2018-10-11T08:32:48.328Z,7.30
2018-10-11T08:35:16.313Z,12.80
2018-10-11T08:37:44.358Z,8.77
2018-10-11T08:40:12.336Z,9.57
2018-10-11T08:42:40.423Z,12.27
2018-10-11T08:45:08.632Z,9.37
2018-10-11T08:47:36.613Z,8.90
2018-10-11T08:50:04.667Z,9.33
2018-10-11T08:52:32.961Z,9.90
2018-10-11T08:55:01.001Z,10.13
2018-10-11T08:57:29.047Z,11.87
2018-10-11T08:59:57.058Z,9.03
2018-10-11T09:02:25.072Z,7.83
2018-10-11T09:04:53.315Z,8.43
2018-10-11T09:07:21.322Z,8.23
2018-10-11T09:09:53.563Z,7.80
2018-10-11T09:12:17.537Z,7.33
2018-10-11T09:14:45.987Z,7.20
2018-10-11T09:17:14.065Z,8.07
2018-10-11T09:19:42.497Z,6.83
2018-10-11T09:22:10.508Z,5.80
2018-10-11T09:24:38.528Z,7.77
2018-10-11T09:27:06.547Z,8.00
2018-10-11T09:29:34.622Z,6.97
2018-10-11T09:32:02.674Z,6.20
2018-10-11T09:34:31.001Z,6.73
2018-10-11T09:36:59.242Z,9.43
2018-10-11T09:39:27.256Z,5.60
2018-10-11T09:41:55.284Z,5.80
2018-10-11T09:44:23.771Z,6.90
2018-10-11T09:46:51.758Z,8.00
2018-10-11T09:49:19.748Z,7.23
2018-10-11T09:51:47.719Z,8.90
2018-10-11T09:54:15.729Z,4.73
2018-10-11T09:57:31.681Z,5.23
2018-10-11T10:00:00.632Z,5.60
2018-10-11T10:02:29.504Z,6.07
2018-10-11T10:04:58.706Z,4.57
2018-10-11T10:07:26.721Z,6.00
2018-10-11T10:09:54.760Z,4.30
2018-10-11T10:12:22.885Z,4.30
2018-10-11T10:14:51.249Z,4.43
2018-10-11T10:17:19.417Z,4.30
2018-10-11T10:19:47.892Z,8.07
2018-10-11T10:22:15.917Z,4.83
2018-10-11T10:24:43.938Z,4.73
2018-10-11T10:27:12.696Z,4.60
2018-10-11T10:29:40.529Z,4.30
2018-10-11T10:32:08.701Z,5.13
2018-10-11T10:34:36.757Z,4.43
2018-10-11T10:37:04.783Z,4.27
2018-10-11T10:39:33.155Z,5.07
2018-10-11T10:42:01.450Z,4.90
2018-10-11T10:44:29.427Z,4.40
2018-10-11T10:46:57.447Z,4.90
2018-10-11T10:49:25.515Z,5.33
2018-10-11T10:51:53.515Z,5.50
2018-10-11T10:54:27.058Z,4.60
2018-10-11T10:56:55.071Z,5.50
2018-10-11T10:59:23.179Z,6.03
2018-10-11T11:01:51.223Z,9.17
2018-10-11T11:04:19.203Z,4.80
2018-10-11T11:06:47.451Z,4.47
2018-10-11T11:09:15.836Z,8.27
2018-10-11T11:11:44.359Z,4.30
2018-10-11T11:14:13.569Z,5.27
2018-10-11T11:16:42.039Z,4.20
2018-10-11T11:19:10.511Z,4.60
2018-10-11T11:21:38.792Z,7.93
2018-10-11T11:24:06.821Z,5.37
2018-10-11T11:26:35.062Z,4.20
2018-10-11T11:29:03.119Z,4.20
2018-10-11T11:31:31.744Z,4.23
2018-10-11T11:34:00.496Z,4.50
2018-10-11T11:36:28.537Z,4.67
2018-10-11T11:38:56.535Z,4.47
2018-10-11T11:41:24.521Z,4.40
2018-10-11T11:43:52.562Z,4.40
2018-10-11T11:46:20.560Z,4.80
2018-10-11T11:48:49.629Z,3.83
2018-10-11T11:51:17.685Z,5.30
2018-10-11T11:53:46.014Z,3.67
2018-10-11T11:56:13.981Z,4.30
2018-10-11T11:58:42.258Z,5.07
2018-10-11T12:01:10.967Z,3.80
2018-10-11T12:03:39.658Z,4.23
2018-10-11T12:06:08.142Z,6.23
2018-10-11T12:08:36.559Z,3.53
2018-10-11T12:11:04.643Z,4.43
2018-10-11T12:13:32.658Z,5.13
2018-10-11T12:16:00.919Z,3.47
2018-10-11T12:18:29.129Z,3.43
2018-10-11T12:20:57.736Z,5.30
2018-10-11T12:23:25.740Z,4.20
2018-10-11T12:25:54.285Z,3.30
2018-10-11T12:28:22.377Z,3.80
2018-10-11T12:30:50.360Z,3.13
2018-10-11T12:33:18.321Z,3.47
2018-10-11T12:35:46.313Z,4.80
2018-10-11T12:38:14.313Z,3.57
2018-10-11T12:40:42.717Z,2.97
2018-10-11T12:43:11.632Z,3.60
2018-10-11T12:45:40.085Z,3.40
2018-10-11T12:48:08.105Z,2.50
2018-10-11T12:50:36.126Z,3.73
2018-10-11T12:53:04.140Z,3.20
2018-10-11T12:55:32.151Z,4.57
2018-10-11T12:58:00.147Z,3.30
2018-10-11T13:00:28.145Z,3.07
2018-10-11T13:02:56.228Z,6.00
2018-10-11T13:05:24.266Z,4.20
2018-10-11T13:07:52.715Z,6.83
2018-10-11T13:10:20.982Z,5.07
2018-10-11T13:12:49.125Z,3.97
2018-10-11T13:15:17.223Z,2.90
2018-10-11T13:17:45.375Z,3.07
2018-10-11T13:20:13.372Z,4.30
2018-10-11T13:22:41.491Z,7.70
2018-10-11T13:25:09.512Z,4.53
2018-10-11T13:27:37.501Z,3.33
2018-10-11T13:30:05.596Z,3.60
2018-10-11T13:32:33.756Z,2.70
2018-10-11T13:35:02.050Z,2.97
2018-10-11T13:40:21.360Z,3.20
2018-10-11T13:42:49.341Z,3.97
2018-10-11T13:45:17.370Z,5.43
2018-10-11T13:47:45.824Z,3.37
2018-10-11T13:50:13.888Z,5.27
2018-10-11T13:52:41.986Z,3.47
2018-10-11T13:55:13.055Z,5.30
2018-10-11T13:57:38.128Z,3.20
2018-10-11T14:00:06.553Z,3.37
2018-10-11T14:02:34.613Z,3.83
2018-10-11T14:05:03.040Z,3.73
2018-10-11T14:07:31.049Z,8.83
2018-10-11T14:09:59.076Z,3.20
2018-10-11T14:12:27.390Z,5.93
2018-10-11T14:14:55.450Z,5.03
2018-10-11T14:17:23.525Z,4.80
2018-10-11T14:19:51.981Z,5.63
2018-10-11T14:22:20.368Z,9.47
2018-10-11T14:24:48.675Z,5.40
2018-10-11T14:27:17.062Z,4.60
2018-10-11T14:29:45.180Z,5.63
2018-10-11T14:32:13.212Z,7.80
2018-10-11T14:34:41.591Z,5.30
2018-10-11T14:37:10.081Z,6.73
2018-10-11T14:39:38.287Z,7.07
2018-10-11T14:42:06.437Z,5.30
2018-10-11T14:44:34.690Z,8.20
2018-10-11T14:47:02.693Z,6.10
2018-10-11T14:49:30.748Z,8.47
2018-10-11T14:51:58.774Z,5.13
2018-10-11T14:54:26.741Z,5.23
2018-10-11T14:56:54.933Z,7.30
2018-10-11T14:59:24.156Z,6.43
2018-10-11T15:01:53.384Z,5.03
2018-10-11T15:04:22.077Z,5.90
2018-10-11T15:06:50.414Z,4.77
2018-10-11T15:09:18.941Z,8.63
2018-10-11T15:11:47.001Z,7.50
2018-10-11T15:14:15.297Z,9.30
2018-10-11T15:16:43.827Z,5.57
2018-10-11T15:19:12.261Z,7.77
2018-10-11T15:21:40.713Z,5.37
2018-10-11T15:24:09.046Z,4.93
2018-10-11T15:29:19.097Z,7.53
2018-10-11T15:31:47.290Z,7.67
2018-10-11T15:34:17.203Z,5.43
2018-10-11T15:36:46.280Z,5.73
2018-10-11T15:39:14.619Z,6.77
2018-10-11T15:41:43.036Z,6.43
2018-10-11T15:44:12.062Z,9.50
2018-10-11T15:46:40.293Z,6.07
2018-10-11T15:49:08.930Z,9.73
2018-10-11T15:51:37.320Z,10.33
2018-10-11T15:54:05.358Z,5.37
2018-10-11T15:56:33.827Z,5.97
2018-10-11T15:59:02.161Z,8.80
2018-10-11T16:01:30.284Z,5.83
2018-10-11T16:03:58.680Z,7.57
2018-10-11T16:06:26.778Z,6.87
2018-10-11T16:08:55.076Z,6.50
2018-10-11T16:11:23.362Z,8.73
2018-10-11T16:13:51.666Z,6.47
2018-10-11T16:16:19.751Z,8.50
2018-10-11T16:18:48.053Z,8.70
2018-10-11T16:21:16.086Z,8.70
2018-10-11T16:23:44.547Z,10.07
2018-10-11T16:26:13.036Z,9.93
2018-10-11T16:28:41.248Z,12.47
2018-10-11T16:31:09.505Z,9.73
2018-10-11T16:33:37.613Z,7.17
2018-10-11T16:36:05.598Z,11.53
2018-10-11T16:38:33.963Z,9.13
2018-10-11T16:41:01.982Z,8.10
2018-10-11T16:43:30.012Z,9.43
2018-10-11T16:45:58.110Z,8.90
2018-10-11T16:48:26.172Z,12.97
2018-10-11T16:50:54.164Z,11.43
2018-10-11T16:53:22.270Z,9.67
2018-10-11T16:55:50.679Z,10.23
2018-10-11T16:58:18.890Z,12.33
2018-10-11T17:00:46.979Z,9.30
2018-10-11T17:03:15.047Z,17.67
2018-10-11T17:05:43.130Z,16.87
2018-10-11T17:08:11.479Z,11.97
2018-10-11T17:10:39.845Z,9.27
2018-10-11T17:13:07.843Z,14.60
2018-10-11T17:15:36.895Z,10.07
2018-10-11T17:18:05.573Z,12.67
2018-10-11T17:20:33.934Z,15.53
2018-10-11T17:23:06.577Z,14.73
2018-10-11T17:25:47.164Z,15.33
2018-10-11T17:28:20.040Z,9.97
2018-10-11T17:30:57.666Z,18.00
2018-10-11T17:33:25.884Z,10.93
2018-10-11T17:35:53.929Z,12.90
2018-10-11T17:38:26.159Z,13.10
2018-10-11T17:40:54.280Z,16.33
2018-10-11T17:43:23.305Z,10.50
2018-10-11T17:45:51.542Z,10.80
2018-10-11T17:48:21.877Z,9.70
2018-10-11T17:50:50.354Z,10.73
2018-10-11T17:53:20.879Z,12.53
2018-10-11T18:07:06.270Z,17.80
2018-10-11T18:10:11.597Z,19.67
2018-10-11T18:12:40.414Z,14.43
2018-10-11T18:15:11.378Z,15.40
2018-10-11T18:17:50.664Z,12.53
2018-10-11T18:20:21.326Z,14.47
2018-10-11T18:22:49.762Z,13.40
2018-10-11T18:25:22.406Z,12.60
2018-10-11T18:30:30.781Z,12.83
2018-10-11T18:33:16.822Z,15.40
2018-10-11T18:35:45.510Z,11.77
2018-10-11T18:38:14.350Z,17.00
2018-10-11T18:40:43.193Z,13.80
2018-10-11T18:43:11.566Z,12.80
2018-10-11T18:45:41.469Z,14.60
2018-10-11T18:48:11.775Z,13.40
2018-10-11T18:50:40.351Z,14.97
2018-10-11T18:53:09.170Z,12.43
2018-10-11T18:55:38.254Z,12.50
2018-10-11T18:58:09.850Z,11.20
2018-10-11T19:00:41.364Z,12.33
2018-10-11T19:03:12.189Z,13.20
2018-10-11T19:05:41.212Z,14.00
2018-10-11T19:08:09.561Z,13.60
2018-10-11T19:10:42.763Z,13.97
2018-10-11T19:13:11.316Z,11.37
2018-10-11T19:15:40.909Z,13.33
2018-10-11T19:18:28.315Z,10.90
2018-10-11T19:20:56.707Z,13.27
2018-10-11T19:23:25.266Z,16.70
2018-10-11T19:25:55.034Z,12.17
2018-10-11T19:28:24.557Z,15.63
2018-10-11T19:30:54.298Z,14.67
2018-10-11T19:33:27.402Z,19.03
2018-10-11T19:35:57.577Z,16.27
2018-10-11T19:38:26.665Z,18.27
2018-10-11T19:40:54.667Z,20.17
2018-10-11T19:43:22.650Z,23.37
2018-10-11T19:45:51.211Z,19.20
2018-10-11T19:48:19.411Z,22.60
2018-10-11T19:50:47.409Z,19.53
2018-10-11T19:53:15.448Z,22.13
2018-10-11T19:55:43.451Z,18.13
2018-10-11T19:58:11.481Z,18.83
2018-10-11T20:00:39.527Z,16.60
2018-10-11T20:03:07.841Z,16.60
2018-10-11T20:05:36.075Z,15.00
2018-10-11T20:08:04.556Z,16.27
2018-10-11T20:10:32.543Z,13.77
2018-10-11T20:13:00.768Z,22.47
2018-10-11T20:15:28.895Z,16.27
2018-10-11T20:17:57.221Z,19.17
2018-10-11T20:20:25.254Z,14.33
2018-10-11T20:23:10.968Z,13.07
2018-10-11T20:25:38.996Z,13.70
2018-10-11T20:28:07.077Z,14.23
2018-10-11T20:30:35.063Z,15.30
2018-10-11T20:33:03.561Z,18.00
2018-10-11T20:35:31.538Z,16.07
2018-10-11T20:37:59.580Z,13.77
2018-10-11T20:40:27.842Z,15.70
2018-10-11T20:42:56.273Z,20.13
2018-10-11T20:45:24.326Z,12.27
2018-10-11T20:47:52.351Z,11.53
2018-10-11T20:50:20.369Z,12.47
2018-10-11T20:52:54.218Z,13.03
2018-10-11T20:55:23.166Z,10.37
2018-10-11T20:57:51.174Z,14.07
2018-10-11T21:00:19.194Z,12.20
2018-10-11T21:02:47.959Z,12.27
2018-10-11T21:05:15.984Z,16.23
2018-10-11T21:07:44.182Z,12.17
2018-10-11T21:10:12.226Z,11.80
2018-10-11T21:12:40.266Z,15.03
2018-10-11T21:15:08.300Z,10.93
2018-10-11T21:17:36.368Z,11.40
2018-10-11T21:20:04.410Z,13.83
2018-10-11T21:22:32.732Z,13.03
2018-10-11T21:25:00.951Z,9.40
2018-10-11T21:27:29.298Z,10.97
2018-10-11T21:29:57.335Z,9.73
2018-10-11T21:32:25.391Z,9.47
2018-10-11T21:34:53.468Z,11.57
2018-10-11T21:37:21.715Z,11.70
2018-10-11T21:39:50.178Z,8.77
2018-10-11T21:42:18.203Z,10.60
2018-10-11T21:44:46.430Z,10.13
2018-10-11T21:47:15.287Z,13.47
2018-10-11T21:49:43.296Z,8.30
2018-10-11T21:52:12.352Z,7.83
2018-10-11T21:54:41.292Z,9.33
2018-10-11T21:57:09.325Z,9.73
2018-10-11T21:59:38.126Z,7.77
